sensor_id;sensor_type;location;lat;lon;timestamp;temperature;humidity
72355;SHT30;60314;55.040;73.076;2022-10-16T00:01:30;9.23;75.14
72355;SHT30;60314;55.040;73.076;2022-10-16T00:03:58;9.29;74.69
72355;SHT30;60314;55.040;73.076;2022-10-16T00:06:26;9.36;74.14
72355;SHT30;60314;55.040;73.076;2022-10-16T00:08:53;9.36;74.20
72355;SHT30;60314;55.040;73.076;2022-10-16T00:11:23;9.34;73.99
72355;SHT30;60314;55.040;73.076;2022-10-16T00:13:51;9.30;74.03
72355;SHT30;60314;55.040;73.076;2022-10-16T00:16:18;9.24;74.15
72355;SHT30;60314;55.040;73.076;2022-10-16T00:18:45;9.15;74.14
72355;SHT30;60314;55.040;73.076;2022-10-16T00:21:15;9.11;74.17
72355;SHT30;60314;55.040;73.076;2022-10-16T00:24:04;9.01;74.15
72355;SHT30;60314;55.040;73.076;2022-10-16T00:26:32;8.92;74.49
72355;SHT30;60314;55.040;73.076;2022-10-16T00:28:59;8.82;74.17
72355;SHT30;60314;55.040;73.076;2022-10-16T00:31:26;8.74;73.77
72355;SHT30;60314;55.040;73.076;2022-10-16T00:33:52;8.69;73.90
72355;SHT30;60314;55.040;73.076;2022-10-16T00:36:22;8.64;73.89
72355;SHT30;60314;55.040;73.076;2022-10-16T00:38:54;8.54;74.06
72355;SHT30;60314;55.040;73.076;2022-10-16T00:41:22;8.52;73.97
72355;SHT30;60314;55.040;73.076;2022-10-16T00:43:51;8.50;73.89
72355;SHT30;60314;55.040;73.076;2022-10-16T00:46:21;8.41;74.36
72355;SHT30;60314;55.040;73.076;2022-10-16T00:51:33;8.14;75.19
72355;SHT30;60314;55.040;73.076;2022-10-16T00:54:03;8.03;75.61
72355;SHT30;60314;55.040;73.076;2022-10-16T00:56:31;7.94;75.77
72355;SHT30;60314;55.040;73.076;2022-10-16T00:58:58;7.92;75.84
72355;SHT30;60314;55.040;73.076;2022-10-16T01:01:26;7.79;75.60
72355;SHT30;60314;55.040;73.076;2022-10-16T01:03:52;7.82;75.52
72355;SHT30;60314;55.040;73.076;2022-10-16T01:09:10;7.79;74.35
72355;SHT30;60314;55.040;73.076;2022-10-16T01:12:06;7.70;74.30
72355;SHT30;60314;55.040;73.076;2022-10-16T01:14:47;7.66;74.16
72355;SHT30;60314;55.040;73.076;2022-10-16T01:23:00;7.59;74.50
72355;SHT30;60314;55.040;73.076;2022-10-16T01:28:24;7.75;74.43
72355;SHT30;60314;55.040;73.076;2022-10-16T01:30:58;7.79;74.76
72355;SHT30;60314;55.040;73.076;2022-10-16T01:33:42;7.86;73.87
72355;SHT30;60314;55.040;73.076;2022-10-16T01:36:17;7.85;73.93
72355;SHT30;60314;55.040;73.076;2022-10-16T01:38:47;7.82;74.23
72355;SHT30;60314;55.040;73.076;2022-10-16T01:41:24;7.75;74.63
72355;SHT30;60314;55.040;73.076;2022-10-16T01:44:19;7.69;74.31
72355;SHT30;60314;55.040;73.076;2022-10-16T01:46:49;7.63;75.03
72355;SHT30;60314;55.040;73.076;2022-10-16T01:49:17;7.63;74.95
72355;SHT30;60314;55.040;73.076;2022-10-16T01:51:47;7.68;74.76
72355;SHT30;60314;55.040;73.076;2022-10-16T01:54:16;7.73;74.82
72355;SHT30;60314;55.040;73.076;2022-10-16T01:56:45;7.76;74.87
72355;SHT30;60314;55.040;73.076;2022-10-16T01:59:15;7.80;74.78
72355;SHT30;60314;55.040;73.076;2022-10-16T02:01:47;7.89;74.77
72355;SHT30;60314;55.040;73.076;2022-10-16T02:07:01;7.99;74.71
72355;SHT30;60314;55.040;73.076;2022-10-16T02:09:34;8.04;75.27
72355;SHT30;60314;55.040;73.076;2022-10-16T02:12:08;8.02;75.16
72355;SHT30;60314;55.040;73.076;2022-10-16T02:14:38;8.06;75.00
72355;SHT30;60314;55.040;73.076;2022-10-16T02:17:15;8.09;74.83
72355;SHT30;60314;55.040;73.076;2022-10-16T02:19:53;8.13;75.17
72355;SHT30;60314;55.040;73.076;2022-10-16T02:22:40;8.13;75.22
72355;SHT30;60314;55.040;73.076;2022-10-16T02:25:20;8.16;75.46
72355;SHT30;60314;55.040;73.076;2022-10-16T02:30:50;8.24;75.13
72355;SHT30;60314;55.040;73.076;2022-10-16T02:33:32;8.27;75.22
72355;SHT30;60314;55.040;73.076;2022-10-16T02:35:59;8.20;75.04
72355;SHT30;60314;55.040;73.076;2022-10-16T02:38:27;8.20;75.41
72355;SHT30;60314;55.040;73.076;2022-10-16T02:40:56;8.30;75.74
72355;SHT30;60314;55.040;73.076;2022-10-16T02:43:22;8.26;75.58
72355;SHT30;60314;55.040;73.076;2022-10-16T02:45:50;8.30;76.12
72355;SHT30;60314;55.040;73.076;2022-10-16T02:48:17;8.41;76.04
72355;SHT30;60314;55.040;73.076;2022-10-16T02:50:49;8.50;75.80
72355;SHT30;60314;55.040;73.076;2022-10-16T02:53:15;8.52;75.92
72355;SHT30;60314;55.040;73.076;2022-10-16T02:55:42;8.60;74.83
72355;SHT30;60314;55.040;73.076;2022-10-16T02:58:09;8.65;75.20
72355;SHT30;60314;55.040;73.076;2022-10-16T03:00:35;8.69;74.90
72355;SHT30;60314;55.040;73.076;2022-10-16T03:03:03;8.82;74.86
72355;SHT30;60314;55.040;73.076;2022-10-16T03:05:30;8.86;74.36
72355;SHT30;60314;55.040;73.076;2022-10-16T03:07:57;8.93;74.82
72355;SHT30;60314;55.040;73.076;2022-10-16T03:10:26;9.02;74.33
72355;SHT30;60314;55.040;73.076;2022-10-16T03:12:53;9.08;73.68
72355;SHT30;60314;55.040;73.076;2022-10-16T03:15:30;9.12;73.20
72355;SHT30;60314;55.040;73.076;2022-10-16T03:17:59;9.16;73.33
72355;SHT30;60314;55.040;73.076;2022-10-16T03:20:26;9.20;72.75
72355;SHT30;60314;55.040;73.076;2022-10-16T03:22:53;9.29;72.31
72355;SHT30;60314;55.040;73.076;2022-10-16T03:25:20;9.34;72.31
72355;SHT30;60314;55.040;73.076;2022-10-16T03:27:46;9.37;72.82
72355;SHT30;60314;55.040;73.076;2022-10-16T03:30:13;9.44;72.24
72355;SHT30;60314;55.040;73.076;2022-10-16T03:32:40;9.50;71.58
72355;SHT30;60314;55.040;73.076;2022-10-16T03:35:17;9.53;72.18
72355;SHT30;60314;55.040;73.076;2022-10-16T03:38:09;9.54;72.34
72355;SHT30;60314;55.040;73.076;2022-10-16T03:40:50;9.61;71.26
72355;SHT30;60314;55.040;73.076;2022-10-16T03:43:21;9.67;72.34
72355;SHT30;60314;55.040;73.076;2022-10-16T03:45:52;9.73;71.86
72355;SHT30;60314;55.040;73.076;2022-10-16T03:48:28;9.78;71.61
72355;SHT30;60314;55.040;73.076;2022-10-16T03:50:57;9.85;70.88
72355;SHT30;60314;55.040;73.076;2022-10-16T03:53:30;9.90;71.54
72355;SHT30;60314;55.040;73.076;2022-10-16T03:56:09;9.98;70.96
72355;SHT30;60314;55.040;73.076;2022-10-16T03:58:43;10.06;70.03
72355;SHT30;60314;55.040;73.076;2022-10-16T04:01:16;10.12;69.78
72355;SHT30;60314;55.040;73.076;2022-10-16T04:03:44;10.22;70.61
72355;SHT30;60314;55.040;73.076;2022-10-16T04:06:17;10.25;70.53
72355;SHT30;60314;55.040;73.076;2022-10-16T04:09:01;10.31;71.45
72355;SHT30;60314;55.040;73.076;2022-10-16T04:11:28;10.39;69.64
72355;SHT30;60314;55.040;73.076;2022-10-16T04:13:54;10.49;69.49
72355;SHT30;60314;55.040;73.076;2022-10-16T04:16:21;10.52;69.15
72355;SHT30;60314;55.040;73.076;2022-10-16T04:18:47;10.57;68.84
72355;SHT30;60314;55.040;73.076;2022-10-16T04:21:14;10.60;67.96
72355;SHT30;60314;55.040;73.076;2022-10-16T04:23:42;10.72;68.53
72355;SHT30;60314;55.040;73.076;2022-10-16T04:26:08;10.80;67.20
72355;SHT30;60314;55.040;73.076;2022-10-16T04:28:36;10.90;67.16
72355;SHT30;60314;55.040;73.076;2022-10-16T04:31:06;10.95;66.60
72355;SHT30;60314;55.040;73.076;2022-10-16T04:33:33;11.01;67.37
72355;SHT30;60314;55.040;73.076;2022-10-16T04:36:01;11.07;67.19
72355;SHT30;60314;55.040;73.076;2022-10-16T04:38:27;11.10;67.50
72355;SHT30;60314;55.040;73.076;2022-10-16T04:40:54;11.16;66.32
72355;SHT30;60314;55.040;73.076;2022-10-16T04:43:21;11.14;65.28
72355;SHT30;60314;55.040;73.076;2022-10-16T04:45:48;11.18;66.47
72355;SHT30;60314;55.040;73.076;2022-10-16T04:48:17;11.27;66.82
72355;SHT30;60314;55.040;73.076;2022-10-16T04:50:49;11.32;65.05
72355;SHT30;60314;55.040;73.076;2022-10-16T04:53:16;11.37;66.64
72355;SHT30;60314;55.040;73.076;2022-10-16T04:55:42;11.42;66.55
72355;SHT30;60314;55.040;73.076;2022-10-16T04:58:20;11.50;66.99
72355;SHT30;60314;55.040;73.076;2022-10-16T05:00:46;11.57;64.91
72355;SHT30;60314;55.040;73.076;2022-10-16T05:03:17;11.61;66.05
72355;SHT30;60314;55.040;73.076;2022-10-16T05:05:45;11.64;65.12
72355;SHT30;60314;55.040;73.076;2022-10-16T05:08:13;11.65;64.37
72355;SHT30;60314;55.040;73.076;2022-10-16T05:10:44;11.67;64.39
72355;SHT30;60314;55.040;73.076;2022-10-16T05:13:11;11.65;64.02
72355;SHT30;60314;55.040;73.076;2022-10-16T05:15:38;11.65;64.42
72355;SHT30;60314;55.040;73.076;2022-10-16T05:18:05;11.58;64.89
72355;SHT30;60314;55.040;73.076;2022-10-16T05:20:31;11.61;64.63
72355;SHT30;60314;55.040;73.076;2022-10-16T05:22:58;11.45;65.19
72355;SHT30;60314;55.040;73.076;2022-10-16T05:25:34;11.31;65.86
72355;SHT30;60314;55.040;73.076;2022-10-16T05:28:01;11.27;65.98
72355;SHT30;60314;55.040;73.076;2022-10-16T05:30:32;11.23;66.66
72355;SHT30;60314;55.040;73.076;2022-10-16T05:32:59;11.28;66.54
72355;SHT30;60314;55.040;73.076;2022-10-16T05:35:25;11.34;66.56
72355;SHT30;60314;55.040;73.076;2022-10-16T05:37:52;11.37;66.93
72355;SHT30;60314;55.040;73.076;2022-10-16T05:40:19;11.41;67.27
72355;SHT30;60314;55.040;73.076;2022-10-16T05:42:45;11.44;67.33
72355;SHT30;60314;55.040;73.076;2022-10-16T05:45:21;11.47;68.06
72355;SHT30;60314;55.040;73.076;2022-10-16T05:47:57;11.48;69.05
72355;SHT30;60314;55.040;73.076;2022-10-16T05:50:33;11.47;70.17
72355;SHT30;60314;55.040;73.076;2022-10-16T05:53:00;11.48;70.13
72355;SHT30;60314;55.040;73.076;2022-10-16T05:55:27;11.58;69.98
72355;SHT30;60314;55.040;73.076;2022-10-16T05:58:04;11.68;71.58
72355;SHT30;60314;55.040;73.076;2022-10-16T06:00:30;11.71;70.39
72355;SHT30;60314;55.040;73.076;2022-10-16T06:02:57;11.72;71.34
72355;SHT30;60314;55.040;73.076;2022-10-16T06:05:23;11.78;68.46
72355;SHT30;60314;55.040;73.076;2022-10-16T06:07:54;11.79;68.28
72355;SHT30;60314;55.040;73.076;2022-10-16T06:10:26;11.96;69.23
72355;SHT30;60314;55.040;73.076;2022-10-16T06:12:55;12.03;69.25
72355;SHT30;60314;55.040;73.076;2022-10-16T06:15:24;12.03;68.90
72355;SHT30;60314;55.040;73.076;2022-10-16T06:17:50;12.00;68.36
72355;SHT30;60314;55.040;73.076;2022-10-16T06:20:17;12.03;68.70
72355;SHT30;60314;55.040;73.076;2022-10-16T06:22:49;11.98;68.94
72355;SHT30;60314;55.040;73.076;2022-10-16T06:25:15;11.95;69.54
72355;SHT30;60314;55.040;73.076;2022-10-16T06:27:49;11.96;69.56
72355;SHT30;60314;55.040;73.076;2022-10-16T06:30:20;11.95;69.42
72355;SHT30;60314;55.040;73.076;2022-10-16T06:32:47;11.88;70.11
72355;SHT30;60314;55.040;73.076;2022-10-16T06:35:18;11.81;69.50
72355;SHT30;60314;55.040;73.076;2022-10-16T06:37:52;11.76;71.63
72355;SHT30;60314;55.040;73.076;2022-10-16T06:40:24;11.75;72.54
72355;SHT30;60314;55.040;73.076;2022-10-16T06:42:50;11.78;72.30
72355;SHT30;60314;55.040;73.076;2022-10-16T06:45:18;11.82;72.12
72355;SHT30;60314;55.040;73.076;2022-10-16T06:47:44;11.86;72.35
72355;SHT30;60314;55.040;73.076;2022-10-16T06:50:10;11.90;70.36
72355;SHT30;60314;55.040;73.076;2022-10-16T06:52:43;11.99;70.15
72355;SHT30;60314;55.040;73.076;2022-10-16T06:55:20;12.10;68.73
72355;SHT30;60314;55.040;73.076;2022-10-16T06:57:48;12.10;68.25
72355;SHT30;60314;55.040;73.076;2022-10-16T07:00:15;12.12;68.66
72355;SHT30;60314;55.040;73.076;2022-10-16T07:02:41;12.16;68.95
72355;SHT30;60314;55.040;73.076;2022-10-16T07:05:18;12.08;68.30
72355;SHT30;60314;55.040;73.076;2022-10-16T07:07:54;12.02;69.46
72355;SHT30;60314;55.040;73.076;2022-10-16T07:10:21;11.86;70.83
72355;SHT30;60314;55.040;73.076;2022-10-16T07:12:50;11.86;71.22
72355;SHT30;60314;55.040;73.076;2022-10-16T07:15:16;11.92;70.96
72355;SHT30;60314;55.040;73.076;2022-10-16T07:17:43;11.93;70.10
72355;SHT30;60314;55.040;73.076;2022-10-16T07:20:20;12.00;71.27
72355;SHT30;60314;55.040;73.076;2022-10-16T07:22:47;12.05;70.38
72355;SHT30;60314;55.040;73.076;2022-10-16T07:25:13;12.12;68.13
72355;SHT30;60314;55.040;73.076;2022-10-16T07:27:40;12.25;69.33
72355;SHT30;60314;55.040;73.076;2022-10-16T07:30:08;12.32;68.83
72355;SHT30;60314;55.040;73.076;2022-10-16T07:32:34;12.40;67.35
72355;SHT30;60314;55.040;73.076;2022-10-16T07:35:01;12.51;68.31
72355;SHT30;60314;55.040;73.076;2022-10-16T07:37:28;12.57;69.52
72355;SHT30;60314;55.040;73.076;2022-10-16T07:39:55;12.61;68.46
72355;SHT30;60314;55.040;73.076;2022-10-16T07:42:28;12.70;69.65
72355;SHT30;60314;55.040;73.076;2022-10-16T07:44:59;12.61;70.15
72355;SHT30;60314;55.040;73.076;2022-10-16T07:47:31;12.63;70.11
72355;SHT30;60314;55.040;73.076;2022-10-16T07:49:57;12.71;70.03
72355;SHT30;60314;55.040;73.076;2022-10-16T07:52:24;12.78;69.42
72355;SHT30;60314;55.040;73.076;2022-10-16T07:54:50;12.85;69.01
72355;SHT30;60314;55.040;73.076;2022-10-16T07:57:17;12.99;68.72
72355;SHT30;60314;55.040;73.076;2022-10-16T07:59:46;13.07;69.31
72355;SHT30;60314;55.040;73.076;2022-10-16T08:02:17;13.14;67.42
72355;SHT30;60314;55.040;73.076;2022-10-16T08:04:46;13.18;68.67
72355;SHT30;60314;55.040;73.076;2022-10-16T08:07:24;13.25;67.38
72355;SHT30;60314;55.040;73.076;2022-10-16T08:09:52;13.18;67.87
72355;SHT30;60314;55.040;73.076;2022-10-16T08:12:19;13.19;67.94
72355;SHT30;60314;55.040;73.076;2022-10-16T08:14:45;13.21;68.21
72355;SHT30;60314;55.040;73.076;2022-10-16T08:17:13;13.26;68.27
72355;SHT30;60314;55.040;73.076;2022-10-16T08:19:46;13.38;68.43
72355;SHT30;60314;55.040;73.076;2022-10-16T08:22:22;13.42;67.10
72355;SHT30;60314;55.040;73.076;2022-10-16T08:24:49;13.42;67.68
72355;SHT30;60314;55.040;73.076;2022-10-16T08:27:33;13.50;67.92
72355;SHT30;60314;55.040;73.076;2022-10-16T08:30:05;13.60;67.17
72355;SHT30;60314;55.040;73.076;2022-10-16T08:32:42;13.63;66.52
72355;SHT30;60314;55.040;73.076;2022-10-16T08:35:19;13.69;66.96
72355;SHT30;60314;55.040;73.076;2022-10-16T08:37:45;13.74;66.20
72355;SHT30;60314;55.040;73.076;2022-10-16T08:48:51;13.63;66.84
72355;SHT30;60314;55.040;73.076;2022-10-16T08:51:36;13.63;67.12
72355;SHT30;60314;55.040;73.076;2022-10-16T08:54:05;13.66;66.98
72355;SHT30;60314;55.040;73.076;2022-10-16T08:56:32;13.63;66.87
72355;SHT30;60314;55.040;73.076;2022-10-16T08:58:59;13.62;67.29
72355;SHT30;60314;55.040;73.076;2022-10-16T09:01:47;13.65;66.95
72355;SHT30;60314;55.040;73.076;2022-10-16T09:07:18;13.76;66.94
72355;SHT30;60314;55.040;73.076;2022-10-16T09:10:06;13.81;67.28
72355;SHT30;60314;55.040;73.076;2022-10-16T09:13:17;13.84;67.00
72355;SHT30;60314;55.040;73.076;2022-10-16T09:18:39;13.79;67.91
72355;SHT30;60314;55.040;73.076;2022-10-16T09:24:09;13.79;68.18
72355;SHT30;60314;55.040;73.076;2022-10-16T09:26:37;13.69;67.54
72355;SHT30;60314;55.040;73.076;2022-10-16T09:29:12;13.60;67.87
72355;SHT30;60314;55.040;73.076;2022-10-16T09:31:39;13.53;68.19
72355;SHT30;60314;55.040;73.076;2022-10-16T09:34:36;13.50;68.75
72355;SHT30;60314;55.040;73.076;2022-10-16T09:37:09;13.45;68.68
72355;SHT30;60314;55.040;73.076;2022-10-16T09:39:49;13.42;69.00
72355;SHT30;60314;55.040;73.076;2022-10-16T09:42:27;13.40;69.54
72355;SHT30;60314;55.040;73.076;2022-10-16T09:44:54;13.42;71.04
72355;SHT30;60314;55.040;73.076;2022-10-16T09:47:28;13.39;71.44
72355;SHT30;60314;55.040;73.076;2022-10-16T09:49:55;13.28;71.88
72355;SHT30;60314;55.040;73.076;2022-10-16T09:52:23;13.23;73.06
72355;SHT30;60314;55.040;73.076;2022-10-16T09:55:12;13.30;73.19
72355;SHT30;60314;55.040;73.076;2022-10-16T09:57:57;13.38;72.74
72355;SHT30;60314;55.040;73.076;2022-10-16T10:00:36;13.42;72.46
72355;SHT30;60314;55.040;73.076;2022-10-16T10:03:43;13.38;70.76
72355;SHT30;60314;55.040;73.076;2022-10-16T10:06:25;13.23;70.16
72355;SHT30;60314;55.040;73.076;2022-10-16T10:11:50;13.19;70.43
72355;SHT30;60314;55.040;73.076;2022-10-16T10:19:39;13.07;68.22
72355;SHT30;60314;55.040;73.076;2022-10-16T10:27:51;12.98;68.48
72355;SHT30;60314;55.040;73.076;2022-10-16T10:44:23;12.70;70.66
72355;SHT30;60314;55.040;73.076;2022-10-16T10:58:21;12.47;71.46
72355;SHT30;60314;55.040;73.076;2022-10-16T11:01:14;12.40;71.44
72355;SHT30;60314;55.040;73.076;2022-10-16T11:06:23;12.46;70.38
72355;SHT30;60314;55.040;73.076;2022-10-16T11:08:53;12.46;69.88
72355;SHT30;60314;55.040;73.076;2022-10-16T11:11:47;12.41;71.25
72355;SHT30;60314;55.040;73.076;2022-10-16T11:16:57;12.36;71.93
72355;SHT30;60314;55.040;73.076;2022-10-16T11:19:48;12.32;72.31
72355;SHT30;60314;55.040;73.076;2022-10-16T11:24:58;12.27;72.69
72355;SHT30;60314;55.040;73.076;2022-10-16T11:30:18;12.25;72.37
72355;SHT30;60314;55.040;73.076;2022-10-16T11:33:02;12.17;72.30
72355;SHT30;60314;55.040;73.076;2022-10-16T11:38:12;11.88;75.81
72355;SHT30;60314;55.040;73.076;2022-10-16T11:40:53;11.82;75.86
72355;SHT30;60314;55.040;73.076;2022-10-16T11:43:37;11.78;75.40
72355;SHT30;60314;55.040;73.076;2022-10-16T11:46:19;11.75;75.35
72355;SHT30;60314;55.040;73.076;2022-10-16T11:48:56;11.74;75.35
72355;SHT30;60314;55.040;73.076;2022-10-16T11:51:45;11.65;75.50
72355;SHT30;60314;55.040;73.076;2022-10-16T11:54:37;11.59;75.86
72355;SHT30;60314;55.040;73.076;2022-10-16T11:57:20;11.57;75.90
72355;SHT30;60314;55.040;73.076;2022-10-16T12:00:02;11.50;75.85
72355;SHT30;60314;55.040;73.076;2022-10-16T12:08:21;11.55;74.72
72355;SHT30;60314;55.040;73.076;2022-10-16T12:10:48;11.58;74.45
72355;SHT30;60314;55.040;73.076;2022-10-16T12:13:37;11.65;74.24
72355;SHT30;60314;55.040;73.076;2022-10-16T12:18:44;11.71;73.02
72355;SHT30;60314;55.040;73.076;2022-10-16T12:21:30;11.75;73.12
72355;SHT30;60314;55.040;73.076;2022-10-16T12:23:58;11.74;73.15
72355;SHT30;60314;55.040;73.076;2022-10-16T12:26:33;11.72;73.22
72355;SHT30;60314;55.040;73.076;2022-10-16T12:31:45;11.69;73.54
72355;SHT30;60314;55.040;73.076;2022-10-16T12:34:42;11.59;73.96
72355;SHT30;60314;55.040;73.076;2022-10-16T12:39:38;11.47;74.53
72355;SHT30;60314;55.040;73.076;2022-10-16T12:42:19;11.34;74.44
72355;SHT30;60314;55.040;73.076;2022-10-16T12:44:46;11.24;74.48
72355;SHT30;60314;55.040;73.076;2022-10-16T12:47:24;11.13;74.80
72355;SHT30;60314;55.040;73.076;2022-10-16T12:50:01;11.08;75.25
72355;SHT30;60314;55.040;73.076;2022-10-16T12:55:00;11.10;74.68
72355;SHT30;60314;55.040;73.076;2022-10-16T13:08:29;10.84;75.25
72355;SHT30;60314;55.040;73.076;2022-10-16T13:22:20;10.66;76.55
72355;SHT30;60314;55.040;73.076;2022-10-16T13:30:18;10.46;75.90
72355;SHT30;60314;55.040;73.076;2022-10-16T13:33:02;10.42;75.79
72355;SHT30;60314;55.040;73.076;2022-10-16T13:35:32;10.31;75.75
72355;SHT30;60314;55.040;73.076;2022-10-16T13:38:15;10.24;75.54
72355;SHT30;60314;55.040;73.076;2022-10-16T13:41:29;10.15;75.61
72355;SHT30;60314;55.040;73.076;2022-10-16T13:43:50;10.01;76.79
72355;SHT30;60314;55.040;73.076;2022-10-16T13:46:20;9.90;77.92
72355;SHT30;60314;55.040;73.076;2022-10-16T13:49:01;9.85;78.25
72355;SHT30;60314;55.040;73.076;2022-10-16T13:51:29;9.84;78.69
72355;SHT30;60314;55.040;73.076;2022-10-16T13:53:56;9.88;78.41
72355;SHT30;60314;55.040;73.076;2022-10-16T13:56:29;9.97;78.37
72355;SHT30;60314;55.040;73.076;2022-10-16T14:01:53;10.02;78.23
72355;SHT30;60314;55.040;73.076;2022-10-16T14:04:21;10.04;78.22
72355;SHT30;60314;55.040;73.076;2022-10-16T14:06:50;10.05;78.19
72355;SHT30;60314;55.040;73.076;2022-10-16T14:09:26;10.02;77.71
72355;SHT30;60314;55.040;73.076;2022-10-16T14:12:12;9.95;77.87
72355;SHT30;60314;55.040;73.076;2022-10-16T14:14:50;9.93;78.19
72355;SHT30;60314;55.040;73.076;2022-10-16T14:17:38;9.91;78.21
72355;SHT30;60314;55.040;73.076;2022-10-16T14:20:14;9.84;77.99
72355;SHT30;60314;55.040;73.076;2022-10-16T14:22:42;9.77;77.88
72355;SHT30;60314;55.040;73.076;2022-10-16T14:30:57;9.78;77.84
72355;SHT30;60314;55.040;73.076;2022-10-16T14:38:38;9.83;77.81
72355;SHT30;60314;55.040;73.076;2022-10-16T14:41:06;9.83;77.53
72355;SHT30;60314;55.040;73.076;2022-10-16T14:46:12;9.77;77.58
72355;SHT30;60314;55.040;73.076;2022-10-16T14:48:42;9.73;77.51
72355;SHT30;60314;55.040;73.076;2022-10-16T14:51:14;9.75;77.48
72355;SHT30;60314;55.040;73.076;2022-10-16T14:53:41;9.70;77.29
72355;SHT30;60314;55.040;73.076;2022-10-16T14:56:16;9.69;77.11
72355;SHT30;60314;55.040;73.076;2022-10-16T14:58:49;9.63;77.01
72355;SHT30;60314;55.040;73.076;2022-10-16T15:01:17;9.61;77.29
72355;SHT30;60314;55.040;73.076;2022-10-16T15:03:53;9.63;77.37
72355;SHT30;60314;55.040;73.076;2022-10-16T15:06:21;9.70;77.43
72355;SHT30;60314;55.040;73.076;2022-10-16T15:08:48;9.74;77.08
72355;SHT30;60314;55.040;73.076;2022-10-16T15:11:18;9.78;77.04
72355;SHT30;60314;55.040;73.076;2022-10-16T15:13:46;9.85;76.84
72355;SHT30;60314;55.040;73.076;2022-10-16T15:16:15;9.88;76.80
72355;SHT30;60314;55.040;73.076;2022-10-16T15:18:42;9.81;77.31
72355;SHT30;60314;55.040;73.076;2022-10-16T15:21:22;9.81;77.58
72355;SHT30;60314;55.040;73.076;2022-10-16T15:24:00;9.80;78.59
72355;SHT30;60314;55.040;73.076;2022-10-16T15:26:37;9.84;79.36
72355;SHT30;60314;55.040;73.076;2022-10-16T15:29:13;9.84;79.99
72355;SHT30;60314;55.040;73.076;2022-10-16T15:31:40;9.81;80.49
72355;SHT30;60314;55.040;73.076;2022-10-16T15:34:10;9.85;80.73
72355;SHT30;60314;55.040;73.076;2022-10-16T15:36:47;9.84;80.61
72355;SHT30;60314;55.040;73.076;2022-10-16T15:39:19;9.77;81.13
72355;SHT30;60314;55.040;73.076;2022-10-16T15:41:47;9.70;81.25
72355;SHT30;60314;55.040;73.076;2022-10-16T15:44:24;9.67;81.30
72355;SHT30;60314;55.040;73.076;2022-10-16T15:46:56;9.71;81.48
72355;SHT30;60314;55.040;73.076;2022-10-16T15:49:22;9.64;81.36
72355;SHT30;60314;55.040;73.076;2022-10-16T15:51:49;9.61;80.50
72355;SHT30;60314;55.040;73.076;2022-10-16T15:54:15;9.56;80.41
72355;SHT30;60314;55.040;73.076;2022-10-16T15:56:42;9.57;79.35
72355;SHT30;60314;55.040;73.076;2022-10-16T15:59:09;9.56;78.87
72355;SHT30;60314;55.040;73.076;2022-10-16T16:01:35;9.54;78.80
72355;SHT30;60314;55.040;73.076;2022-10-16T16:04:03;9.53;79.39
72355;SHT30;60314;55.040;73.076;2022-10-16T16:06:30;9.56;79.00
72355;SHT30;60314;55.040;73.076;2022-10-16T16:08:58;9.56;79.38
72355;SHT30;60314;55.040;73.076;2022-10-16T16:11:25;9.57;79.55
72355;SHT30;60314;55.040;73.076;2022-10-16T16:13:52;9.54;79.85
72355;SHT30;60314;55.040;73.076;2022-10-16T16:16:20;9.56;79.85
72355;SHT30;60314;55.040;73.076;2022-10-16T16:18:47;9.50;80.01
72355;SHT30;60314;55.040;73.076;2022-10-16T16:21:15;9.39;80.44
72355;SHT30;60314;55.040;73.076;2022-10-16T16:23:42;9.37;80.52
72355;SHT30;60314;55.040;73.076;2022-10-16T16:26:14;9.47;80.29
72355;SHT30;60314;55.040;73.076;2022-10-16T16:28:42;9.47;79.72
72355;SHT30;60314;55.040;73.076;2022-10-16T16:31:09;9.46;80.25
72355;SHT30;60314;55.040;73.076;2022-10-16T16:33:36;9.46;80.68
72355;SHT30;60314;55.040;73.076;2022-10-16T16:36:13;9.53;80.05
72355;SHT30;60314;55.040;73.076;2022-10-16T16:38:40;9.60;79.88
72355;SHT30;60314;55.040;73.076;2022-10-16T16:41:17;9.51;80.46
72355;SHT30;60314;55.040;73.076;2022-10-16T16:43:45;9.48;80.49
72355;SHT30;60314;55.040;73.076;2022-10-16T16:46:11;9.54;80.30
72355;SHT30;60314;55.040;73.076;2022-10-16T16:48:38;9.58;80.40
72355;SHT30;60314;55.040;73.076;2022-10-16T16:51:12;9.53;80.74
72355;SHT30;60314;55.040;73.076;2022-10-16T16:53:47;9.51;80.86
72355;SHT30;60314;55.040;73.076;2022-10-16T16:56:13;9.46;80.69
72355;SHT30;60314;55.040;73.076;2022-10-16T16:58:54;9.39;80.41
72355;SHT30;60314;55.040;73.076;2022-10-16T17:01:27;9.33;80.45
72355;SHT30;60314;55.040;73.076;2022-10-16T17:03:55;9.24;80.68
72355;SHT30;60314;55.040;73.076;2022-10-16T17:06:27;9.20;80.86
72355;SHT30;60314;55.040;73.076;2022-10-16T17:08:56;9.16;81.04
72355;SHT30;60314;55.040;73.076;2022-10-16T17:11:27;9.16;81.20
72355;SHT30;60314;55.040;73.076;2022-10-16T17:14:00;9.12;81.41
72355;SHT30;60314;55.040;73.076;2022-10-16T17:16:30;9.15;81.75
72355;SHT30;60314;55.040;73.076;2022-10-16T17:19:06;9.13;81.87
72355;SHT30;60314;55.040;73.076;2022-10-16T17:21:34;9.15;81.87
72355;SHT30;60314;55.040;73.076;2022-10-16T17:24:02;9.11;82.00
72355;SHT30;60314;55.040;73.076;2022-10-16T17:26:29;9.09;82.28
72355;SHT30;60314;55.040;73.076;2022-10-16T17:28:58;9.12;82.05
72355;SHT30;60314;55.040;73.076;2022-10-16T17:31:29;9.15;81.88
72355;SHT30;60314;55.040;73.076;2022-10-16T17:33:58;9.20;81.84
72355;SHT30;60314;55.040;73.076;2022-10-16T17:36:25;9.26;81.56
72355;SHT30;60314;55.040;73.076;2022-10-16T17:38:54;9.34;79.62
72355;SHT30;60314;55.040;73.076;2022-10-16T17:41:23;9.44;80.06
72355;SHT30;60314;55.040;73.076;2022-10-16T17:43:50;9.56;79.76
72355;SHT30;60314;55.040;73.076;2022-10-16T17:46:19;9.48;79.60
72355;SHT30;60314;55.040;73.076;2022-10-16T17:48:53;9.46;78.82
72355;SHT30;60314;55.040;73.076;2022-10-16T17:51:26;9.43;79.50
72355;SHT30;60314;55.040;73.076;2022-10-16T17:53:59;9.32;80.50
72355;SHT30;60314;55.040;73.076;2022-10-16T17:56:27;9.27;80.65
72355;SHT30;60314;55.040;73.076;2022-10-16T17:59:01;9.20;81.31
72355;SHT30;60314;55.040;73.076;2022-10-16T18:01:33;9.18;81.86
72355;SHT30;60314;55.040;73.076;2022-10-16T18:04:06;9.18;81.78
72355;SHT30;60314;55.040;73.076;2022-10-16T18:06:35;9.16;81.95
72355;SHT30;60314;55.040;73.076;2022-10-16T18:09:03;9.13;82.15
72355;SHT30;60314;55.040;73.076;2022-10-16T18:11:36;9.08;82.23
72355;SHT30;60314;55.040;73.076;2022-10-16T18:14:03;9.11;82.19
72355;SHT30;60314;55.040;73.076;2022-10-16T18:16:30;9.11;81.96
72355;SHT30;60314;55.040;73.076;2022-10-16T18:19:06;9.06;81.83
72355;SHT30;60314;55.040;73.076;2022-10-16T18:21:33;9.01;82.26